Time;durP1;ratioP1;P1;durP2;ratioP2;P2;SDS_P1;SDS_P2;PMS_P1;PMS_P2;Temp;Humidity;BMP_temperature;BMP_pressure;BME280_temperature;BME280_humidity;BME280_pressure;Samples;Min_cycle;Max_cycle;Signal;HPM_P1;HPM_P2
2023/01/14 00:01:30;;;;;;;8.27;5.20;;;7.50;99.90;;;7.44;76.16;99897.31;5108704;28;20237;-66
2023/01/14 00:04:00;;;;;;;6.93;4.40;;;7.50;99.90;;;7.41;75.88;99903.28;5118430;28;20203;-67
2023/01/14 00:06:31;;;;;;;9.00;4.80;;;7.40;99.90;;;7.40;75.68;99910.94;5112370;28;20192;-66
2023/01/14 00:09:04;;;;;;;8.10;4.80;;;7.50;99.90;;;7.35;75.83;99895.59;5120834;28;20569;-67
2023/01/14 00:11:49;;;;;;;6.23;4.23;;;7.40;99.90;;;7.34;75.88;99903.28;5109809;28;20200;-67
2023/01/14 00:14:21;;;;;;;6.67;4.37;;;7.40;99.90;;;7.32;76.25;99894.72;5115895;28;20720;-65
2023/01/14 00:16:50;;;;;;;6.57;4.60;;;7.40;99.90;;;7.31;76.14;99898.16;5110542;28;20346;-66
2023/01/14 00:19:20;;;;;;;9.03;4.77;;;7.40;99.90;;;7.31;75.86;99905.84;5118664;28;20649;-66
2023/01/14 00:21:48;;;;;;;7.23;4.83;;;7.30;99.90;;;7.32;75.87;99912.69;5116615;28;20560;-67
2023/01/14 00:24:20;;;;;;;7.23;4.67;;;7.40;99.90;;;7.30;75.50;99906.72;5115284;28;20204;-68
2023/01/14 00:26:51;;;;;;;7.50;4.80;;;7.30;99.90;;;7.29;75.73;99905.88;5116581;28;20188;-68
2023/01/14 00:29:22;;;;;;;7.53;4.40;;;7.30;99.90;;;7.28;76.15;99916.09;5118295;28;20203;-66
2023/01/14 00:31:50;;;;;;;7.67;4.80;;;7.40;99.90;;;7.25;75.46;99917.81;5113129;28;20660;-67
2023/01/14 00:34:19;;;;;;;7.37;4.50;;;7.30;99.90;;;7.29;75.38;99925.47;5115474;28;20266;-67
2023/01/14 00:36:47;;;;;;;7.47;4.50;;;7.30;99.90;;;7.30;75.39;99927.22;5106908;28;20200;-65
2023/01/14 00:39:16;;;;;;;8.13;4.50;;;7.30;99.90;;;7.31;74.66;99928.91;5109716;28;20269;-67
2023/01/14 00:41:46;;;;;;;7.00;4.50;;;7.30;99.90;;;7.29;74.80;99930.59;5117280;28;20248;-66
2023/01/14 00:44:14;;;;;;;10.23;5.13;;;7.30;99.90;;;7.30;74.75;99927.22;5110771;28;20211;-66
2023/01/14 00:46:43;;;;;;;9.57;4.57;;;7.30;99.90;;;7.28;74.62;99936.59;5106863;28;20233;-66
2023/01/14 00:49:19;;;;;;;6.17;4.40;;;7.30;99.90;;;7.25;74.17;99934.88;5112147;28;20652;-67
2023/01/14 00:51:48;;;;;;;6.07;4.40;;;7.30;99.90;;;7.24;74.65;99943.44;5116806;28;20699;-66
2023/01/14 00:54:17;;;;;;;7.97;4.67;;;7.30;99.90;;;7.23;74.91;99946.84;5114826;28;20212;-67
2023/01/14 00:56:48;;;;;;;6.80;4.20;;;7.30;99.90;;;7.20;74.72;99942.56;5116484;28;20268;-65
2023/01/14 00:59:22;;;;;;;9.70;4.93;;;7.20;99.90;;;7.22;75.09;99953.69;5117947;28;20212;-67
2023/01/14 01:01:54;;;;;;;7.77;4.10;;;7.20;99.90;;;7.20;74.48;99952.81;5112632;28;20230;-67
2023/01/14 01:04:23;;;;;;;10.17;4.97;;;7.30;99.90;;;7.21;73.93;99954.53;5115316;28;20195;-66
2023/01/14 01:06:52;;;;;;;6.83;3.97;;;7.20;99.90;;;7.19;74.39;99953.69;5111706;28;20212;-65
2023/01/14 01:09:21;;;;;;;6.73;4.07;;;7.20;99.90;;;7.18;74.20;99949.41;5117428;28;20208;-66
2023/01/14 01:11:51;;;;;;;8.23;4.03;;;7.30;99.90;;;7.19;73.29;99956.25;5114583;28;20570;-68
2023/01/14 01:14:19;;;;;;;6.50;4.00;;;7.20;99.90;;;7.19;73.39;99965.66;5116644;28;20200;-67
2023/01/14 01:16:48;;;;;;;7.10;4.00;;;7.20;99.90;;;7.20;72.65;99959.66;5115502;28;20368;-67
2023/01/14 01:19:16;;;;;;;7.43;3.83;;;7.20;99.90;;;7.17;71.96;99957.94;5117622;28;20207;-66
2023/01/14 01:21:45;;;;;;;7.03;3.73;;;7.20;99.90;;;7.18;71.73;99959.66;5115765;28;20223;-65
2023/01/14 01:24:13;;;;;;;6.70;3.60;;;7.30;99.90;;;7.17;72.46;99957.94;5117260;28;20237;-65
2023/01/14 01:26:45;;;;;;;5.07;3.00;;;7.30;99.90;;;7.18;72.56;99953.66;5116299;28;20232;-66
2023/01/14 01:29:15;;;;;;;5.37;3.30;;;7.20;99.90;;;7.16;71.85;99950.25;5117282;28;20243;-68
2023/01/14 01:31:44;;;;;;;10.70;4.20;;;7.20;99.90;;;7.15;71.92;99946.84;5112974;28;20222;-67
2023/01/14 01:34:12;;;;;;;5.20;3.40;;;7.30;99.90;;;7.16;71.28;99955.38;5115873;28;20659;-67
2023/01/14 01:36:41;;;;;;;6.23;3.70;;;7.30;99.90;;;7.17;70.90;99947.69;5113283;28;20684;-68
2023/01/14 01:39:09;;;;;;;5.63;3.90;;;7.30;99.90;;;7.18;71.62;99957.13;5104566;28;20304;-66
2023/01/14 01:41:38;;;;;;;6.17;3.40;;;7.30;99.90;;;7.18;70.88;99956.22;5115575;28;20855;-69
2023/01/14 01:44:09;;;;;;;5.17;3.53;;;7.30;99.90;;;7.16;71.38;99958.81;5111486;28;20208;-67
2023/01/14 01:46:39;;;;;;;5.60;3.13;;;7.30;99.90;;;7.14;70.96;99947.72;5111411;28;20206;-67
2023/01/14 01:49:14;;;;;;;5.67;3.50;;;7.30;99.90;;;7.16;70.87;99955.38;5115039;28;20208;-67
2023/01/14 01:51:48;;;;;;;8.27;3.57;;;7.20;99.90;;;7.15;70.55;99961.38;5106836;28;20197;-66
2023/01/14 01:54:19;;;;;;;4.80;3.77;;;7.30;99.90;;;7.14;70.23;99963.09;5115286;28;20255;-66
2023/01/14 01:56:49;;;;;;;4.10;3.13;;;7.30;99.90;;;7.13;70.64;99961.34;5115702;28;20212;-66
2023/01/14 01:59:23;;;;;;;5.20;2.90;;;7.20;99.90;;;7.13;70.34;99961.34;5116147;28;20245;-67
2023/01/14 02:01:56;;;;;;;6.63;3.77;;;7.20;99.90;;;7.14;70.46;99963.09;5116166;28;20195;-67
2023/01/14 02:04:25;;;;;;;5.37;3.60;;;7.30;99.90;;;7.16;70.41;99960.50;5104251;28;20199;-66
2023/01/14 02:06:54;;;;;;;5.03;3.57;;;7.30;99.90;;;7.19;70.46;99965.66;5115492;28;20204;-70
2023/01/14 02:09:25;;;;;;;5.07;3.30;;;7.30;99.90;;;7.19;70.69;99966.50;5117746;28;20204;-65
2023/01/14 02:12:13;;;;;;;5.57;3.50;;;7.30;99.90;;;7.20;70.49;99962.22;5111354;28;20225;-67
2023/01/14 02:14:58;;;;;;;6.23;3.67;;;7.40;99.90;;;7.22;70.18;99961.38;5115207;28;20200;-66
2023/01/14 02:17:41;;;;;;;6.20;3.73;;;7.30;99.90;;;7.25;70.42;99973.31;5113467;28;20276;-66
2023/01/14 02:20:22;;;;;;;5.43;3.47;;;7.40;99.90;;;7.26;70.28;99978.47;5115224;28;20204;-67
2023/01/14 02:23:56;;;;;;;5.13;3.40;;;7.40;99.90;;;7.26;70.58;99970.78;5115207;28;20616;-66
2023/01/14 02:27:20;;;;;;;6.30;3.17;;;7.40;99.90;;;7.29;70.06;99974.19;5010485;28;20195;-67
2023/01/14 02:30:48;;;;;;;5.83;3.40;;;7.40;99.90;;;7.30;69.56;99978.47;5002661;28;20207;-67
2023/01/14 02:33:40;;;;;;;6.13;3.47;;;7.50;99.90;;;7.31;69.68;99986.16;5085379;28;20252;-68
2023/01/14 02:36:20;;;;;;;6.30;3.50;;;7.50;99.90;;;7.34;69.62;99980.19;5116049;28;20247;-66
2023/01/14 02:38:59;;;;;;;5.13;3.50;;;7.50;99.90;;;7.35;69.90;99976.75;5113389;28;20214;-66
2023/01/14 02:44:23;;;;;;;7.13;3.70;;;7.50;99.90;;;7.33;69.40;99988.69;5115336;28;20199;-66
2023/01/14 02:46:58;;;;;;;4.77;3.23;;;7.50;99.90;;;7.30;69.31;99994.69;5104985;28;20223;-65
2023/01/14 02:49:32;;;;;;;5.97;3.40;;;7.50;99.90;;;7.32;69.76;100004.94;5116373;28;20203;-67
2023/01/14 02:52:05;;;;;;;5.93;3.97;;;7.40;99.90;;;7.31;70.18;100001.53;5109777;28;20203;-66
2023/01/14 02:54:33;;;;;;;7.07;3.90;;;7.40;99.90;;;7.29;70.40;100008.38;5117419;28;20203;-66
2023/01/14 02:57:07;;;;;;;7.80;4.30;;;7.40;99.90;;;7.29;69.72;100012.63;5119064;28;20265;-66
2023/01/14 02:59:49;;;;;;;5.33;3.80;;;7.40;99.90;;;7.24;70.23;100012.63;5117822;28;20207;-66
2023/01/14 03:02:42;;;;;;;6.03;3.83;;;7.40;99.90;;;7.23;70.37;99992.97;5119809;28;20244;-67
2023/01/14 03:05:45;;;;;;;5.03;3.30;;;7.40;99.90;;;7.22;70.46;100016.91;5121263;28;20192;-67
2023/01/14 03:08:24;;;;;;;8.93;3.70;;;7.40;99.90;;;7.20;70.73;100013.47;5111506;27;20203;-66
2023/01/14 03:11:01;;;;;;;5.47;3.97;;;7.30;99.90;;;7.19;70.08;100015.19;5107878;28;20209;-68
2023/01/14 03:13:39;;;;;;;6.77;4.00;;;7.30;99.90;;;7.17;70.78;100021.16;5115739;28;20200;-65
2023/01/14 03:16:14;;;;;;;5.03;3.43;;;7.30;99.90;;;7.14;71.02;100008.31;5113578;28;20265;-68
2023/01/14 03:18:49;;;;;;;6.90;3.53;;;7.30;99.90;;;7.11;71.46;100024.56;5120997;28;20207;-67
2023/01/14 03:21:24;;;;;;;6.40;4.07;;;7.20;99.90;;;7.07;71.41;100020.28;5116633;28;20259;-66
2023/01/14 03:23:59;;;;;;;8.70;3.97;;;7.20;99.90;;;7.07;71.32;100025.41;5118637;28;20196;-65
2023/01/14 03:26:32;;;;;;;5.07;3.60;;;7.20;99.90;;;7.06;71.33;100025.41;5116149;28;20203;-67
2023/01/14 03:29:09;;;;;;;5.93;3.87;;;7.20;99.90;;;7.04;71.40;100025.41;5108668;28;20204;-67
2023/01/14 03:31:42;;;;;;;7.60;3.70;;;7.20;99.90;;;7.02;71.40;100029.66;5115550;28;21751;-68
2023/01/14 03:34:17;;;;;;;8.83;4.20;;;7.10;99.90;;;6.98;71.22;100036.47;5120155;28;20210;-67
2023/01/14 03:36:47;;;;;;;5.73;3.80;;;7.10;99.90;;;6.95;71.10;100026.22;5117527;28;20218;-66
2023/01/14 03:39:20;;;;;;;6.53;4.10;;;7.10;99.90;;;6.89;71.13;100033.06;5118880;28;20204;-66
2023/01/14 03:44:47;;;;;;;5.27;3.43;;;6.90;99.90;;;6.80;71.00;100054.34;5113129;28;20213;-66
2023/01/14 03:47:17;;;;;;;6.63;3.50;;;6.90;99.90;;;6.74;71.47;100049.22;5115381;28;20203;-66
2023/01/14 03:49:47;;;;;;;5.30;3.40;;;6.80;99.90;;;6.69;71.57;100061.97;5121401;28;20505;-65
2023/01/14 03:52:24;;;;;;;5.17;3.60;;;6.80;99.90;;;6.65;72.16;100059.41;5120194;28;20207;-67
2023/01/14 03:55:01;;;;;;;6.10;3.50;;;6.70;99.90;;;6.58;72.00;100065.34;5121135;28;20567;-66
2023/01/14 03:57:38;;;;;;;8.23;3.80;;;6.70;99.90;;;6.54;72.49;100062.75;5112432;28;20230;-67
2023/01/14 04:00:12;;;;;;;8.63;4.30;;;6.70;99.90;;;6.50;72.04;100060.19;5118601;28;20710;-66
2023/01/14 04:02:43;;;;;;;5.73;3.27;;;6.60;99.90;;;6.47;72.68;100065.28;5118456;28;20655;-65
2023/01/14 04:05:13;;;;;;;7.17;3.00;;;6.60;99.90;;;6.45;73.07;100064.44;5120816;28;20204;-66
2023/01/14 04:07:41;;;;;;;5.57;3.40;;;6.50;99.90;;;6.43;72.73;100063.56;5120467;28;20208;-67
2023/01/14 04:10:11;;;;;;;6.67;3.40;;;6.50;99.90;;;6.39;72.80;100067.81;5117851;28;20204;-65
2023/01/14 04:15:20;;;;;;;5.53;3.47;;;6.40;99.90;;;6.38;73.01;100070.38;5119018;28;20257;-66
2023/01/14 04:15:27;;;;;;;5.73;3.27;;;6.50;99.90;;;6.34;73.22;100076.31;5114013;28;20219;-67
2023/01/14 04:17:56;;;;;;;6.27;3.07;;;6.40;99.90;;;6.31;73.14;100068.63;5118315;28;20228;-67
2023/01/14 04:20:25;;;;;;;6.50;3.63;;;6.40;99.90;;;6.30;72.79;100078.00;5118310;28;20204;-66
2023/01/14 04:22:54;;;;;;;4.07;3.00;;;6.40;99.90;;;6.27;72.90;100081.38;5119962;28;20741;-65
2023/01/14 04:25:22;;;;;;;7.50;3.60;;;6.30;99.90;;;6.25;72.75;100082.22;5120199;28;20211;-66
2023/01/14 04:27:50;;;;;;;7.70;3.37;;;6.30;99.90;;;6.23;73.11;100086.47;5118040;28;20226;-65
2023/01/14 04:30:19;;;;;;;4.70;2.97;;;6.30;99.90;;;6.20;72.68;100092.44;5116219;28;20208;-66
2023/01/14 04:32:48;;;;;;;6.23;3.30;;;6.30;99.90;;;6.18;73.18;100093.25;5116425;28;20249;-67
2023/01/14 04:35:16;;;;;;;8.60;3.73;;;6.30;99.90;;;6.14;73.04;100094.06;5118203;28;20579;-68
2023/01/14 04:37:46;;;;;;;6.93;3.27;;;6.20;99.90;;;6.14;72.71;100088.97;5119904;28;20224;-67
2023/01/14 04:40:15;;;;;;;5.00;3.20;;;6.20;99.90;;;6.11;73.06;100092.34;5117054;28;20224;-67
2023/01/14 04:42:42;;;;;;;6.07;3.70;;;6.20;99.90;;;6.10;73.59;100098.31;5118336;28;20219;-66
2023/01/14 04:45:12;;;;;;;6.30;3.53;;;6.20;99.90;;;6.12;73.13;100096.63;5115902;27;20219;-67
2023/01/14 04:47:40;;;;;;;5.70;3.20;;;6.20;99.90;;;6.11;72.98;100092.34;5117600;28;20200;-66
2023/01/14 04:50:31;;;;;;;7.03;3.53;;;6.20;99.90;;;6.11;73.11;100094.91;5117069;28;20212;-66
2023/01/14 04:53:07;;;;;;;6.00;3.60;;;6.10;99.90;;;6.11;73.13;100091.50;5118285;28;20708;-65
2023/01/14 04:55:38;;;;;;;4.77;2.80;;;6.20;99.90;;;6.12;72.98;100095.78;5119416;28;20599;-67
2023/01/14 04:58:08;;;;;;;5.73;2.90;;;6.20;99.90;;;6.14;73.59;100100.03;5116858;28;20230;-65
2023/01/14 05:00:38;;;;;;;5.57;3.50;;;6.20;99.90;;;6.14;72.84;100096.63;5115885;28;20226;-67
2023/01/14 05:03:08;;;;;;;5.07;3.00;;;6.20;99.90;;;6.16;73.14;100100.06;5114678;28;20219;-67
2023/01/14 05:05:38;;;;;;;5.40;3.20;;;6.20;99.90;;;6.17;73.02;100101.78;5113917;28;20189;-67
2023/01/14 05:08:10;;;;;;;4.13;2.77;;;6.30;99.90;;;6.19;72.83;100100.94;5105675;28;20201;-66
2023/01/14 05:10:39;;;;;;;3.90;2.90;;;6.30;99.90;;;6.22;73.13;100108.66;5117537;28;20666;-68
2023/01/14 05:13:08;;;;;;;3.80;2.80;;;6.30;99.90;;;6.22;72.94;100106.09;5118714;28;20717;-66
2023/01/14 05:15:39;;;;;;;3.63;2.80;;;6.30;99.90;;;6.22;72.59;100110.34;5114847;28;20233;-66
2023/01/14 05:18:09;;;;;;;6.30;3.07;;;6.20;99.90;;;6.21;72.59;100114.59;5103798;28;20239;-65
2023/01/14 05:20:39;;;;;;;5.43;2.97;;;6.30;99.90;;;6.22;72.46;100110.34;5107254;28;20209;-66
2023/01/14 05:23:13;;;;;;;5.53;2.50;;;6.30;99.90;;;6.20;72.78;100115.44;5117893;28;20212;-66
2023/01/14 05:25:41;;;;;;;4.83;2.83;;;6.30;99.90;;;6.26;72.68;100122.31;5111503;28;20193;-68
2023/01/14 05:28:13;;;;;;;5.57;2.90;;;6.30;99.90;;;6.25;72.08;100124.00;5113278;28;20205;-66
2023/01/14 05:30:41;;;;;;;4.40;2.53;;;6.30;99.90;;;6.27;72.26;100122.31;5108406;28;20200;-68
2023/01/14 05:33:10;;;;;;;5.40;2.87;;;6.30;99.90;;;6.28;71.82;100126.59;5117162;28;20210;-67
2023/01/14 05:35:39;;;;;;;6.10;2.53;;;6.30;99.90;;;6.29;71.81;100138.53;5117137;28;20208;-67
2023/01/14 05:38:10;;;;;;;4.77;2.67;;;6.40;99.90;;;6.31;72.09;100137.72;5119596;28;20253;-67
2023/01/14 05:40:39;;;;;;;7.70;2.90;;;6.40;99.90;;;6.32;72.31;100147.09;5118128;28;20253;-66
2023/01/14 05:45:55;;;;;;;4.47;2.70;;;6.40;99.90;;;6.35;72.34;100145.41;5105588;28;20232;-68
2023/01/14 05:48:25;;;;;;;4.80;2.73;;;6.40;99.90;;;6.32;72.01;100144.53;5115654;28;20196;-67
2023/01/14 05:50:56;;;;;;;4.67;2.77;;;6.40;99.90;;;6.34;72.17;100146.25;5114239;27;20207;-67
2023/01/14 05:53:28;;;;;;;4.70;2.40;;;6.50;99.90;;;6.37;72.15;100146.28;5118289;28;20252;-67
2023/01/14 05:55:57;;;;;;;4.70;2.73;;;6.50;99.90;;;6.36;72.68;100144.56;5119053;28;20196;-67
2023/01/14 05:58:27;;;;;;;5.20;2.33;;;6.40;99.90;;;6.34;72.29;100150.53;5119316;28;20224;-67
2023/01/14 06:06:36;;;;;;;5.10;2.97;;;6.40;99.90;;;6.35;72.53;100162.47;5114076;28;20203;-68
2023/01/14 06:09:09;;;;;;;6.00;2.77;;;6.40;99.90;;;6.33;72.45;100164.16;5115789;28;20192;-67
2023/01/14 06:11:39;;;;;;;5.03;2.40;;;6.30;99.90;;;6.33;72.46;100164.16;5113835;28;20249;-66
2023/01/14 06:14:08;;;;;;;5.43;2.63;;;6.40;99.90;;;6.30;72.34;100172.69;5118609;28;20234;-67
2023/01/14 06:16:39;;;;;;;3.83;2.57;;;6.30;99.90;;;6.35;73.02;100173.56;5112632;28;20227;-67
2023/01/14 06:19:09;;;;;;;4.03;2.80;;;6.40;99.90;;;6.36;72.45;100169.28;5118776;28;20212;-68
2023/01/14 06:21:39;;;;;;;4.43;2.53;;;6.40;99.90;;;6.37;72.36;100171.88;5119161;28;20200;-66
2023/01/14 06:24:09;;;;;;;6.47;2.53;;;6.40;99.90;;;6.40;72.27;100176.16;5104685;28;20212;-67
2023/01/14 06:26:38;;;;;;;3.60;2.60;;;6.40;99.90;;;6.43;72.81;100176.16;5105002;28;20737;-67
2023/01/14 06:29:12;;;;;;;5.67;2.27;;;6.40;99.90;;;6.45;72.38;100174.50;5110493;28;20260;-67
2023/01/14 06:31:42;;;;;;;5.70;2.77;;;6.50;99.90;;;6.46;72.31;100178.75;5115932;28;20196;-67
2023/01/14 06:34:11;;;;;;;5.63;2.87;;;6.50;99.90;;;6.46;72.11;100174.50;5113032;28;20345;-67
2023/01/14 06:36:40;;;;;;;6.77;3.00;;;6.50;99.90;;;6.47;71.86;100188.16;5110683;28;20192;-66
2023/01/14 06:39:09;;;;;;;5.37;2.80;;;6.50;99.90;;;6.46;71.92;100182.16;5108816;28;20536;-67
2023/01/14 06:41:38;;;;;;;5.67;2.90;;;6.50;99.90;;;6.47;72.24;100188.16;5106010;28;20279;-68
2023/01/14 06:44:06;;;;;;;4.30;2.37;;;6.50;99.90;;;6.46;72.06;100182.16;5107472;28;20207;-64
2023/01/14 06:46:35;;;;;;;8.10;4.17;;;6.50;99.90;;;6.49;72.23;100189.88;5107819;28;20253;-65
2023/01/14 06:49:04;;;;;;;6.33;2.90;;;6.50;99.90;;;6.50;71.58;100194.16;5110837;28;20317;-67
2023/01/14 06:51:33;;;;;;;5.13;2.70;;;6.60;99.90;;;6.54;72.13;100192.47;5111651;28;20200;-69
2023/01/14 06:54:01;;;;;;;5.13;2.80;;;6.60;99.90;;;6.56;72.02;100198.47;5108685;28;20203;-66
2023/01/14 06:56:31;;;;;;;8.77;3.97;;;6.60;99.90;;;6.57;71.44;100195.06;5111261;28;20208;-68
2023/01/14 06:58:59;;;;;;;6.00;3.20;;;6.60;99.90;;;6.60;71.62;100199.34;5105431;28;20753;-72
2023/01/14 07:01:28;;;;;;;6.93;3.73;;;6.70;99.90;;;6.61;71.86;100195.94;5110623;28;20276;-69
2023/01/14 07:03:56;;;;;;;10.80;4.00;;;6.70;99.90;;;6.65;71.23;100208.75;5100067;28;20204;-68
2023/01/14 07:06:24;;;;;;;5.60;3.33;;;6.70;99.90;;;6.66;71.15;100205.34;5109419;28;20281;-68
2023/01/14 07:08:53;;;;;;;7.50;4.03;;;6.70;99.90;;;6.70;70.74;100206.22;5088132;28;20288;-69
2023/01/14 07:11:21;;;;;;;4.13;2.63;;;6.70;99.90;;;6.70;71.43;100209.66;5100252;28;20644;-67
2023/01/14 07:13:51;;;;;;;6.37;2.93;;;6.80;99.90;;;6.72;70.94;100214.78;5100903;28;20360;-67
2023/01/14 07:16:19;;;;;;;5.60;3.00;;;6.80;99.90;;;6.76;71.27;100211.38;5103296;28;20208;-68
2023/01/14 07:18:48;;;;;;;3.97;2.00;;;6.80;99.90;;;6.80;71.28;100213.13;5108575;28;20212;-69
2023/01/14 07:21:16;;;;;;;5.90;3.27;;;6.80;99.90;;;6.77;70.74;100213.97;5109328;28;20222;-68
2023/01/14 07:23:45;;;;;;;5.10;2.77;;;6.90;99.90;;;6.84;70.72;100219.13;5109494;28;20204;-67
2023/01/14 07:26:14;;;;;;;4.07;2.67;;;6.90;99.90;;;6.87;70.54;100224.25;5105084;28;20957;-67
2023/01/14 07:28:42;;;;;;;3.87;2.30;;;6.90;99.90;;;6.90;70.58;100230.25;5104176;28;20600;-65
2023/01/14 07:31:12;;;;;;;8.53;2.53;;;7.00;99.90;;;6.94;69.66;100233.69;5102761;28;20212;-68
2023/01/14 07:33:41;;;;;;;10.17;3.27;;;7.00;99.90;;;6.97;69.55;100236.28;5107946;28;20203;-66
2023/01/14 07:36:09;;;;;;;4.97;2.67;;;7.00;99.90;;;6.99;69.65;100232.00;5102175;28;20327;-67
2023/01/14 07:38:38;;;;;;;5.33;2.70;;;7.10;99.90;;;7.05;69.42;100239.75;5110562;28;20223;-66
2023/01/14 07:41:10;;;;;;;6.00;2.30;;;7.20;99.90;;;7.11;69.83;100244.06;5113389;28;20211;-73
2023/01/14 07:43:39;;;;;;;5.90;2.23;;;7.20;99.90;;;7.12;69.21;100235.53;5109583;28;20296;-68
2023/01/14 07:46:09;;;;;;;3.60;2.17;;;7.20;99.90;;;7.18;68.73;100245.78;5108875;28;20249;-69
2023/01/14 07:48:40;;;;;;;4.80;2.10;;;7.30;99.90;;;7.19;68.73;100239.84;5113082;28;20227;-68
2023/01/14 07:51:09;;;;;;;5.43;2.23;;;7.30;99.90;;;7.24;68.12;100249.25;5110926;27;20208;-67
2023/01/14 07:53:38;;;;;;;3.73;2.40;;;7.30;99.90;;;7.27;68.76;100250.97;5112617;28;20619;-65
2023/01/14 07:56:08;;;;;;;6.13;2.10;;;7.40;99.90;;;7.30;67.71;100250.16;5111806;28;20743;-63
2023/01/14 07:58:36;;;;;;;5.53;2.30;;;7.40;99.90;;;7.32;67.69;100262.09;5109281;28;20265;-70
2023/01/14 08:01:07;;;;;;;3.90;1.90;;;7.40;99.90;;;7.33;68.14;100260.38;5105338;28;20228;-69
2023/01/14 08:03:37;;;;;;;5.93;2.50;;;7.50;99.90;;;7.36;68.00;100261.25;5109736;28;20223;-65
2023/01/14 08:06:07;;;;;;;6.27;2.50;;;7.50;99.90;;;7.43;67.36;100262.16;5112052;28;20257;-66
2023/01/14 08:08:38;;;;;;;3.33;2.10;;;7.60;99.90;;;7.52;67.94;100271.59;5110523;28;20246;-64
2023/01/14 08:11:07;;;;;;;6.83;2.30;;;7.70;99.90;;;7.61;67.16;100258.81;5100911;28;20226;-65
2023/01/14 08:13:35;;;;;;;3.80;2.03;;;7.80;99.90;;;7.71;67.19;100274.25;5101935;28;20660;-66
2023/01/14 08:16:05;;;;;;;6.60;2.47;;;7.80;99.90;;;7.91;67.05;100283.72;5108937;28;20200;-63
2023/01/14 08:18:35;;;;;;;5.70;2.20;;;8.00;99.90;;;8.21;65.54;100272.66;5113895;28;20244;-66
2023/01/14 08:21:07;;;;;;;4.13;2.43;;;8.30;99.90;;;8.55;65.33;100272.75;5108928;28;20247;-64
2023/01/14 08:23:36;;;;;;;3.80;2.20;;;8.70;99.90;;;8.85;65.03;100274.44;5105925;28;20225;-66
2023/01/14 08:26:07;;;;;;;5.43;2.47;;;9.00;99.90;;;9.00;63.26;100279.56;5108794;27;20370;-65
2023/01/14 08:28:36;;;;;;;4.47;2.30;;;9.10;99.90;;;9.07;63.31;100283.84;5111461;28;20196;-64
2023/01/14 08:31:07;;;;;;;5.17;2.40;;;9.20;99.90;;;9.12;62.71;100289.81;5104885;28;20223;-64
2023/01/14 08:33:36;;;;;;;4.90;2.63;;;9.30;99.90;;;9.24;62.18;100293.22;5107977;28;20207;-64
2023/01/14 08:36:11;;;;;;;6.87;2.37;;;9.40;99.90;;;9.38;62.54;100306.91;5110316;28;20204;-67
2023/01/14 08:38:44;;;;;;;4.73;2.63;;;9.50;99.90;;;9.50;61.48;100306.00;5108106;28;20215;-67
2023/01/14 08:41:15;;;;;;;5.43;2.07;;;9.60;99.90;;;9.59;61.23;100306.00;5096017;28;20197;-66
2023/01/14 08:43:47;;;;;;;5.40;2.10;;;9.70;99.90;;;9.60;60.50;100297.41;5112685;28;20706;-69
2023/01/14 08:46:16;;;;;;;5.23;2.43;;;9.70;99.90;;;9.62;60.08;100314.56;5112247;28;20200;-68
2023/01/14 08:48:44;;;;;;;3.83;2.23;;;9.70;99.90;;;9.62;60.44;100308.56;5103036;28;20200;-74
2023/01/14 08:51:15;;;;;;;4.17;2.47;;;9.70;99.90;;;9.75;60.88;100312.78;5109581;28;20356;-67
2023/01/14 08:53:43;;;;;;;6.17;2.33;;;9.90;99.90;;;10.01;61.53;100315.25;5114365;28;20208;-68
2023/01/14 08:56:15;;;;;;;7.20;2.70;;;10.30;99.90;;;11.24;59.02;100311.81;5110967;28;20292;-73
2023/01/14 08:58:45;;;;;;;5.30;2.23;;;11.80;99.90;;;11.41;55.81;100317.63;5110334;28;20192;-68
2023/01/14 09:01:14;;;;;;;3.33;1.80;;;11.80;99.90;;;11.29;54.26;100325.50;5112049;28;20745;-66
2023/01/14 09:03:45;;;;;;;3.87;2.10;;;11.50;99.90;;;11.21;54.45;100329.88;5112996;28;20648;-73
2023/01/14 09:06:17;;;;;;;2.80;1.50;;;11.40;99.90;;;12.33;53.62;100313.94;5110774;28;20219;-70
2023/01/14 09:17:14;;;;;;;4.43;1.83;;;11.60;99.90;;;11.06;54.02;100320.56;5109309;28;20732;-71
2023/01/14 09:19:48;;;;;;;2.93;1.57;;;11.20;99.90;;;10.82;53.84;100326.78;5115401;28;20220;-71
2023/01/14 09:22:21;;;;;;;4.00;2.03;;;10.90;99.90;;;12.19;54.36;100329.66;5108128;27;20249;-66
2023/01/14 09:24:50;;;;;;;3.00;1.77;;;12.50;99.90;;;13.96;49.43;100322.31;5108094;28;20491;-67
2023/01/14 09:27:19;;;;;;;3.87;1.50;;;14.00;99.90;;;15.45;45.82;100317.84;5102948;28;20227;-68
2023/01/14 09:29:48;;;;;;;4.37;1.97;;;15.50;99.90;;;15.59;43.17;100316.63;5109482;28;20268;-67
2023/01/14 09:32:18;;;;;;;5.70;1.83;;;15.50;99.90;;;15.01;42.64;100323.38;5110320;28;20208;-69
2023/01/14 09:34:50;;;;;;;7.23;2.20;;;15.00;99.90;;;14.21;44.00;100314.84;5103660;28;20205;-68
2023/01/14 09:37:22;;;;;;;4.53;1.70;;;14.20;99.90;;;13.45;45.86;100331.06;5106381;28;20192;-65
2023/01/14 09:39:51;;;;;;;2.57;1.50;;;13.50;99.90;;;12.98;47.98;100339.63;5111577;28;20757;-69
2023/01/14 09:42:29;;;;;;;4.23;1.83;;;13.10;99.90;;;12.60;48.70;100329.91;5110255;28;20566;-68
2023/01/14 09:45:10;;;;;;;5.23;2.07;;;12.70;99.90;;;12.14;49.55;100338.31;5109320;28;20196;-67
2023/01/14 09:47:40;;;;;;;3.77;1.93;;;12.20;99.90;;;11.64;50.88;100332.88;5110246;28;20207;-68
2023/01/14 09:50:17;;;;;;;3.10;1.70;;;11.70;99.90;;;11.29;52.35;100333.22;5110387;28;20204;-67
2023/01/14 09:53:02;;;;;;;4.53;2.27;;;11.40;99.90;;;11.12;53.37;100328.25;5109496;28;20199;-65
2023/01/14 09:55:37;;;;;;;4.27;2.27;;;11.20;99.90;;;11.10;53.54;100322.25;5111091;28;20192;-66
2023/01/14 09:58:14;;;;;;;4.93;2.27;;;11.20;99.90;;;11.16;53.91;100323.91;5098506;28;20200;-66
2023/01/14 10:00:52;;;;;;;3.70;2.10;;;11.20;99.90;;;11.27;53.33;100332.41;5095532;28;20251;-67
2023/01/14 10:03:29;;;;;;;7.23;2.80;;;11.30;99.90;;;11.27;53.27;100329.84;5108510;28;20207;-64
2023/01/14 10:06:03;;;;;;;5.77;2.30;;;11.30;99.90;;;11.58;53.99;100326.03;5104443;28;20246;-66
2023/01/14 10:08:39;;;;;;;3.83;2.20;;;11.70;99.90;;;12.28;51.25;100323.47;5102141;28;20204;-66
2023/01/14 10:11:10;;;;;;;4.83;2.57;;;12.40;99.90;;;12.20;50.41;100325.31;5111540;28;20224;-65
2023/01/14 10:13:46;;;;;;;8.10;3.90;;;12.20;99.90;;;12.00;50.61;100325.56;5108358;28;20539;-65
2023/01/14 10:16:22;;;;;;;7.37;2.73;;;12.10;99.90;;;11.88;51.45;100334.34;5111286;28;20253;-65
2023/01/14 10:18:57;;;;;;;5.03;2.93;;;12.00;99.90;;;11.87;51.20;100327.47;5110770;28;20680;-65
2023/01/14 10:21:35;;;;;;;6.17;3.07;;;12.00;99.90;;;11.96;51.35;100322.16;5111396;28;20250;-66
2023/01/14 10:24:05;;;;;;;5.00;2.50;;;12.00;99.90;;;11.98;50.90;100327.34;5106660;28;20673;-68
2023/01/14 10:26:33;;;;;;;6.90;3.20;;;12.00;99.90;;;12.04;51.07;100325.53;5111455;28;20591;-68
2023/01/14 10:29:15;;;;;;;5.27;2.50;;;12.10;99.90;;;12.20;51.00;100331.34;5112816;28;20204;-66
2023/01/14 10:31:53;;;;;;;7.57;2.03;;;12.40;99.90;;;12.46;49.99;100336.13;5110668;28;20199;-66
2023/01/14 10:34:29;;;;;;;4.30;1.73;;;12.50;99.90;;;14.11;50.83;100321.97;5112049;28;20199;-67
2023/01/14 10:36:58;;;;;;;5.20;2.30;;;14.10;99.90;;;17.20;43.80;100312.53;5111900;28;20199;-65
2023/01/14 10:39:28;;;;;;;5.83;2.77;;;17.10;99.90;;;20.51;37.78;100309.38;5109228;28;20203;-67
2023/01/14 10:42:00;;;;;;;5.20;2.22;;;20.10;99.90;;;23.75;30.59;100303.81;5111137;28;20590;-66
2023/01/14 10:44:33;;;;;;;4.43;2.30;;;23.00;87.80;;;25.65;26.74;100299.16;5111211;28;20208;-66
2023/01/14 10:47:07;;;;;;;4.75;2.13;;;24.70;67.50;;;27.36;24.69;100290.16;5110094;28;20207;-65
2023/01/14 10:49:41;;;;;;;2.92;1.75;;;26.60;63.50;;;29.00;22.25;100288.31;5110742;28;20200;-66
2023/01/14 10:52:27;;;;;;;3.20;1.70;;;28.20;55.60;;;29.20;21.02;100273.38;5096495;28;20195;-66
2023/01/14 10:55:03;;;;;;;2.88;1.80;;;28.40;52.10;;;28.16;21.32;100282.00;5107176;28;20211;-68
2023/01/14 10:57:38;;;;;;;3.17;1.70;;;27.70;50.70;;;26.06;22.87;100284.81;5109323;28;20195;-68
2023/01/14 11:00:08;;;;;;;3.53;2.10;;;25.90;50.90;;;24.11;25.18;100294.50;5110364;28;20390;-65
2023/01/14 11:02:39;;;;;;;5.82;2.25;;;24.10;53.20;;;22.79;27.36;100288.50;5106714;28;20203;-68
2023/01/14 11:05:26;;;;;;;3.42;1.95;;;22.60;55.40;;;21.42;29.38;100296.03;5111064;28;20235;-65
2023/01/14 11:07:58;;;;;;;3.88;1.90;;;21.30;57.50;;;20.56;30.81;100299.53;5106175;28;20196;-68
2023/01/14 11:10:30;;;;;;;4.93;2.33;;;20.30;59.30;;;21.69;31.29;100299.00;5107038;28;20211;-66